Terminal Aerodrome Forecast
Issued by NWS

Home | Current Version | Previous Version | Text Only | Print | Product List | Glossary On
Versions: 1 2 3 4 5 6 7 8 9 10 11 12
412
FTUS45 KPIH 260520
TAFSUN
TAF
KSUN 260520Z 2606/2706 33007KT P6SM VCSH SCT030 BKN050
     FM260700 VRB06KT P6SM -RA SCT025 BKN035
     FM261700 19009KT P6SM -SHRA VCTS SCT030 BKN050CB
     FM270400 34010KT P6SM SCT050 BKN070
      AMD LTD TO CLD VIS AND WIND TIL 261300=

USA.gov is the U.S. government's official web portal to all federal, state and local government web resources and services.